sensor_id;sensor_type;location;lat;lon;timestamp;noise_LAeq;noise_LA_min;noise_LA_max;noise_LA01;noise_LA95
57092;Laerm;42968;52.094;4.328;2023-10-19T00:01:10;45.61;40.89;65.15;;
57092;Laerm;42968;52.094;4.328;2023-10-19T00:03:36;59.24;40.62;75.63;;
57092;Laerm;42968;52.094;4.328;2023-10-19T00:06:05;57.74;40.98;78.39;;
57092;Laerm;42968;52.094;4.328;2023-10-19T00:08:30;58.64;40.43;74.08;;
57092;Laerm;42968;52.094;4.328;2023-10-19T00:11:05;46.57;41.61;64.74;;
57092;Laerm;42968;52.094;4.328;2023-10-19T00:13:38;60.88;40.62;78.20;;
57092;Laerm;42968;52.094;4.328;2023-10-19T00:16:04;45.01;40.23;65.73;;
57092;Laerm;42968;52.094;4.328;2023-10-19T00:18:48;60.57;41.14;77.44;;
57092;Laerm;42968;52.094;4.328;2023-10-19T00:21:17;47.86;42.29;65.14;;
57092;Laerm;42968;52.094;4.328;2023-10-19T00:23:46;48.80;41.96;64.62;;
57092;Laerm;42968;52.094;4.328;2023-10-19T00:26:16;61.89;42.93;83.32;;
57092;Laerm;42968;52.094;4.328;2023-10-19T00:28:48;46.95;42.09;64.76;;
57092;Laerm;42968;52.094;4.328;2023-10-19T00:31:18;59.38;41.68;78.71;;
57092;Laerm;42968;52.094;4.328;2023-10-19T00:33:45;61.27;41.96;78.48;;
57092;Laerm;42968;52.094;4.328;2023-10-19T00:36:11;65.55;41.46;80.82;;
57092;Laerm;42968;52.094;4.328;2023-10-19T00:38:40;67.39;40.89;85.89;;
57092;Laerm;42968;52.094;4.328;2023-10-19T00:41:22;59.82;40.71;78.01;;
57092;Laerm;42968;52.094;4.328;2023-10-19T00:43:57;45.99;41.30;66.04;;
57092;Laerm;42968;52.094;4.328;2023-10-19T00:46:41;59.55;41.22;77.17;;
57092;Laerm;42968;52.094;4.328;2023-10-19T00:49:06;69.72;42.09;88.12;;
57092;Laerm;42968;52.094;4.328;2023-10-19T00:51:41;46.39;41.03;67.58;;
57092;Laerm;42968;52.094;4.328;2023-10-19T00:54:29;60.08;40.80;76.79;;
57092;Laerm;42968;52.094;4.328;2023-10-19T00:56:58;55.75;42.65;78.56;;
57092;Laerm;42968;52.094;4.328;2023-10-19T00:59:28;46.60;41.46;64.58;;
57092;Laerm;42968;52.094;4.328;2023-10-19T01:02:00;45.64;41.38;65.05;;
57092;Laerm;42968;52.094;4.328;2023-10-19T01:04:44;62.09;42.47;80.06;;
57092;Laerm;42968;52.094;4.328;2023-10-19T01:07:16;64.56;43.04;79.08;;
57092;Laerm;42968;52.094;4.328;2023-10-19T01:09:47;47.99;42.76;64.74;;
57092;Laerm;42968;52.094;4.328;2023-10-19T01:12:12;47.04;42.35;67.99;;
57092;Laerm;42968;52.094;4.328;2023-10-19T01:17:31;57.17;44.47;77.36;;
57092;Laerm;42968;52.094;4.328;2023-10-19T01:19:58;50.49;45.45;65.42;;
57092;Laerm;42968;52.094;4.328;2023-10-19T01:22:24;51.68;45.54;72.88;;
57092;Laerm;42968;52.094;4.328;2023-10-19T01:24:51;64.21;44.47;81.94;;
57092;Laerm;42968;52.094;4.328;2023-10-19T01:27:18;48.28;43.04;65.11;;
57092;Laerm;42968;52.094;4.328;2023-10-19T01:29:43;59.54;45.27;75.50;;
57092;Laerm;42968;52.094;4.328;2023-10-19T01:32:08;61.95;44.76;75.22;;
57092;Laerm;42968;52.094;4.328;2023-10-19T01:34:37;62.41;42.93;79.67;;
57092;Laerm;42968;52.094;4.328;2023-10-19T01:37:02;46.94;42.16;64.57;;
57092;Laerm;42968;52.094;4.328;2023-10-19T01:39:31;57.54;41.38;73.06;;
57092;Laerm;42968;52.094;4.328;2023-10-19T01:41:57;45.69;40.80;64.92;;
57092;Laerm;42968;52.094;4.328;2023-10-19T01:44:22;56.58;41.38;76.40;;
57092;Laerm;42968;52.094;4.328;2023-10-19T01:46:49;51.29;41.06;68.05;;
57092;Laerm;42968;52.094;4.328;2023-10-19T01:49:15;43.92;40.03;65.57;;
57092;Laerm;42968;52.094;4.328;2023-10-19T01:51:51;43.65;40.23;64.58;;
57092;Laerm;42968;52.094;4.328;2023-10-19T01:54:16;54.50;39.70;74.35;;
57092;Laerm;42968;52.094;4.328;2023-10-19T01:56:43;59.28;39.70;75.47;;
57092;Laerm;42968;52.094;4.328;2023-10-19T01:59:08;62.35;39.81;76.12;;
57092;Laerm;42968;52.094;4.328;2023-10-19T02:01:34;43.36;39.58;63.18;;
57092;Laerm;42968;52.094;4.328;2023-10-19T02:04:03;60.50;39.92;73.83;;
57092;Laerm;42968;52.094;4.328;2023-10-19T02:06:29;56.14;39.08;77.46;;
57092;Laerm;42968;52.094;4.328;2023-10-19T02:09:06;62.29;39.21;77.87;;
57092;Laerm;42968;52.094;4.328;2023-10-19T02:11:51;56.96;40.03;78.14;;
57092;Laerm;42968;52.094;4.328;2023-10-19T02:14:23;65.69;41.14;79.93;;
57092;Laerm;42968;52.094;4.328;2023-10-19T02:16:51;57.83;38.81;75.36;;
57092;Laerm;42968;52.094;4.328;2023-10-19T02:19:17;41.76;39.08;62.51;;
57092;Laerm;42968;52.094;4.328;2023-10-19T02:21:44;41.78;35.36;50.36;;
57092;Laerm;42968;52.094;4.328;2023-10-19T02:24:12;59.82;39.34;77.75;;
57092;Laerm;42968;52.094;4.328;2023-10-19T02:26:39;43.09;39.21;58.02;;
57092;Laerm;42968;52.094;4.328;2023-10-19T02:29:05;62.67;40.03;76.19;;
57092;Laerm;42968;52.094;4.328;2023-10-19T02:31:33;54.87;39.34;71.14;;
57092;Laerm;42968;52.094;4.328;2023-10-19T02:33:58;51.33;40.62;68.69;;
57092;Laerm;42968;52.094;4.328;2023-10-19T02:36:30;58.60;40.33;71.69;;
57092;Laerm;42968;52.094;4.328;2023-10-19T02:38:59;56.32;39.34;70.82;;
57092;Laerm;42968;52.094;4.328;2023-10-19T02:41:25;60.48;40.98;75.78;;
57092;Laerm;42968;52.094;4.328;2023-10-19T02:43:52;58.65;39.81;74.70;;
57092;Laerm;42968;52.094;4.328;2023-10-19T02:46:27;54.45;39.21;76.93;;
57092;Laerm;42968;52.094;4.328;2023-10-19T02:48:52;61.85;39.58;77.02;;
57092;Laerm;42968;52.094;4.328;2023-10-19T02:51:18;58.39;38.52;74.83;;
57092;Laerm;42968;52.094;4.328;2023-10-19T02:53:44;68.09;40.53;86.55;;
57092;Laerm;42968;52.094;4.328;2023-10-19T02:56:13;54.01;39.70;72.83;;
57092;Laerm;42968;52.094;4.328;2023-10-19T02:58:42;58.21;40.03;74.87;;
57092;Laerm;42968;52.094;4.328;2023-10-19T03:01:14;53.76;39.46;70.12;;
57092;Laerm;42968;52.094;4.328;2023-10-19T03:03:42;55.26;39.46;70.46;;
57092;Laerm;42968;52.094;4.328;2023-10-19T03:06:08;59.61;39.58;77.48;;
57092;Laerm;42968;52.094;4.328;2023-10-19T03:08:34;59.00;40.80;76.18;;
57092;Laerm;42968;52.094;4.328;2023-10-19T03:11:00;60.83;41.68;74.71;;
57092;Laerm;42968;52.094;4.328;2023-10-19T03:13:38;66.88;40.23;82.14;;
57092;Laerm;42968;52.094;4.328;2023-10-19T03:16:03;58.89;42.16;75.54;;
57092;Laerm;42968;52.094;4.328;2023-10-19T03:18:33;65.09;42.41;79.65;;
57092;Laerm;42968;52.094;4.328;2023-10-19T03:20:58;66.52;44.69;80.42;;
57092;Laerm;42968;52.094;4.328;2023-10-19T03:23:23;64.85;48.15;78.81;;
57092;Laerm;42968;52.094;4.328;2023-10-19T03:25:52;64.59;42.47;79.03;;
57092;Laerm;42968;52.094;4.328;2023-10-19T03:28:38;63.34;43.68;77.71;;
57092;Laerm;42968;52.094;4.328;2023-10-19T03:31:05;67.25;45.07;79.25;;
57092;Laerm;42968;52.094;4.328;2023-10-19T03:33:31;68.16;45.60;80.30;;
57092;Laerm;42968;52.094;4.328;2023-10-19T03:35:56;64.72;44.97;76.17;;
57092;Laerm;42968;52.094;4.328;2023-10-19T03:38:22;65.06;42.47;77.51;;
57092;Laerm;42968;52.094;4.328;2023-10-19T03:40:48;66.11;46.62;82.51;;
57092;Laerm;42968;52.094;4.328;2023-10-19T03:43:24;64.25;43.54;77.37;;
57092;Laerm;42968;52.094;4.328;2023-10-19T03:45:52;68.44;50.34;83.08;;
57092;Laerm;42968;52.094;4.328;2023-10-19T03:48:18;67.35;48.43;79.46;;
57092;Laerm;42968;52.094;4.328;2023-10-19T03:50:51;67.81;42.71;82.78;;
57092;Laerm;42968;52.094;4.328;2023-10-19T03:53:18;65.36;47.16;80.72;;
57092;Laerm;42968;52.094;4.328;2023-10-19T03:55:43;64.22;44.87;75.86;;
57092;Laerm;42968;52.094;4.328;2023-10-19T03:58:09;67.23;49.20;81.19;;
57092;Laerm;42968;52.094;4.328;2023-10-19T04:00:37;66.80;46.73;80.58;;
57092;Laerm;42968;52.094;4.328;2023-10-19T04:03:02;66.61;45.42;82.69;;
57092;Laerm;42968;52.094;4.328;2023-10-19T04:05:27;65.11;49.52;76.68;;
57092;Laerm;42968;52.094;4.328;2023-10-19T04:07:53;73.45;57.24;85.78;;
57092;Laerm;42968;52.094;4.328;2023-10-19T04:10:22;68.78;53.38;82.69;;
57092;Laerm;42968;52.094;4.328;2023-10-19T04:13:00;68.90;52.17;81.03;;
57092;Laerm;42968;52.094;4.328;2023-10-19T04:15:26;69.49;52.71;80.07;;
57092;Laerm;42968;52.094;4.328;2023-10-19T04:17:51;66.42;50.33;80.55;;
57092;Laerm;42968;52.094;4.328;2023-10-19T04:20:18;67.29;52.75;76.59;;
57092;Laerm;42968;52.094;4.328;2023-10-19T04:22:47;67.97;46.89;82.38;;
57092;Laerm;42968;52.094;4.328;2023-10-19T04:25:13;69.37;48.15;83.40;;
57092;Laerm;42968;52.094;4.328;2023-10-19T04:27:39;70.91;53.08;81.08;;
57092;Laerm;42968;52.094;4.328;2023-10-19T04:30:07;69.75;55.86;79.84;;
57092;Laerm;42968;52.094;4.328;2023-10-19T04:32:40;67.28;49.96;79.92;;
57092;Laerm;42968;52.094;4.328;2023-10-19T04:35:05;70.28;52.24;81.86;;
57092;Laerm;42968;52.094;4.328;2023-10-19T04:37:34;71.45;53.39;78.97;;
57092;Laerm;42968;52.094;4.328;2023-10-19T04:39:59;71.14;48.21;88.83;;
57092;Laerm;42968;52.094;4.328;2023-10-19T04:42:26;69.04;51.05;77.85;;
57092;Laerm;42968;52.094;4.328;2023-10-19T04:44:52;71.19;50.54;81.39;;
57092;Laerm;42968;52.094;4.328;2023-10-19T04:47:17;71.47;55.46;82.42;;
57092;Laerm;42968;52.094;4.328;2023-10-19T04:49:43;68.74;50.77;77.51;;
57092;Laerm;42968;52.094;4.328;2023-10-19T04:52:08;70.75;52.64;78.55;;
57092;Laerm;42968;52.094;4.328;2023-10-19T04:54:34;70.45;50.87;79.73;;
57092;Laerm;42968;52.094;4.328;2023-10-19T04:57:02;72.05;53.02;81.89;;
57092;Laerm;42968;52.094;4.328;2023-10-19T04:59:27;70.61;53.18;78.71;;
57092;Laerm;42968;52.094;4.328;2023-10-19T05:01:53;71.12;49.15;81.05;;
57092;Laerm;42968;52.094;4.328;2023-10-19T05:04:19;69.07;47.76;77.18;;
57092;Laerm;42968;52.094;4.328;2023-10-19T05:06:44;71.35;55.53;82.02;;
57092;Laerm;42968;52.094;4.328;2023-10-19T05:09:09;71.04;54.22;80.17;;
57092;Laerm;42968;52.094;4.328;2023-10-19T05:11:34;69.05;52.13;78.35;;
57092;Laerm;42968;52.094;4.328;2023-10-19T05:14:00;70.19;55.82;79.36;;
57092;Laerm;42968;52.094;4.328;2023-10-19T05:16:26;69.50;51.14;78.22;;
57092;Laerm;42968;52.094;4.328;2023-10-19T05:18:51;71.28;54.17;83.27;;
57092;Laerm;42968;52.094;4.328;2023-10-19T05:21:16;69.99;55.40;79.40;;
57092;Laerm;42968;52.094;4.328;2023-10-19T05:23:42;69.88;55.24;78.22;;
57092;Laerm;42968;52.094;4.328;2023-10-19T05:26:07;70.65;55.12;82.69;;
57092;Laerm;42968;52.094;4.328;2023-10-19T05:28:32;69.83;56.06;77.43;;
57092;Laerm;42968;52.094;4.328;2023-10-19T05:30:57;72.05;56.12;82.07;;
57092;Laerm;42968;52.094;4.328;2023-10-19T05:33:24;72.61;50.48;84.17;;
57092;Laerm;42968;52.094;4.328;2023-10-19T05:35:51;71.63;56.64;82.79;;
57092;Laerm;42968;52.094;4.328;2023-10-19T05:38:16;70.69;51.68;84.21;;
57092;Laerm;42968;52.094;4.328;2023-10-19T05:40:42;71.63;55.22;77.28;;
57092;Laerm;42968;52.094;4.328;2023-10-19T05:43:10;71.64;54.17;83.73;;
57092;Laerm;42968;52.094;4.328;2023-10-19T05:45:36;70.13;50.52;80.06;;
57092;Laerm;42968;52.094;4.328;2023-10-19T05:48:02;71.18;54.79;80.51;;
57092;Laerm;42968;52.094;4.328;2023-10-19T05:50:29;72.16;59.76;79.13;;
57092;Laerm;42968;52.094;4.328;2023-10-19T05:52:54;71.45;55.41;81.58;;
57092;Laerm;42968;52.094;4.328;2023-10-19T05:55:19;71.56;54.21;84.46;;
57092;Laerm;42968;52.094;4.328;2023-10-19T05:57:46;69.72;50.28;77.57;;
57092;Laerm;42968;52.094;4.328;2023-10-19T06:00:12;71.75;57.19;79.72;;
57092;Laerm;42968;52.094;4.328;2023-10-19T06:02:44;72.03;55.95;83.48;;
57092;Laerm;42968;52.094;4.328;2023-10-19T06:05:10;72.07;56.64;80.36;;
57092;Laerm;42968;52.094;4.328;2023-10-19T06:07:35;71.05;55.30;79.04;;
57092;Laerm;42968;52.094;4.328;2023-10-19T06:10:01;71.14;51.24;79.91;;
57092;Laerm;42968;52.094;4.328;2023-10-19T06:12:32;71.16;55.79;78.37;;
57092;Laerm;42968;52.094;4.328;2023-10-19T06:14:58;70.45;54.67;79.20;;
57092;Laerm;42968;52.094;4.328;2023-10-19T06:17:23;73.00;53.40;86.43;;
57092;Laerm;42968;52.094;4.328;2023-10-19T06:19:49;72.47;54.39;81.10;;
57092;Laerm;42968;52.094;4.328;2023-10-19T06:22:14;69.87;56.93;80.73;;
57092;Laerm;42968;52.094;4.328;2023-10-19T06:24:41;71.40;51.70;85.81;;
57092;Laerm;42968;52.094;4.328;2023-10-19T06:27:06;72.56;58.58;79.95;;
57092;Laerm;42968;52.094;4.328;2023-10-19T06:29:31;73.81;58.87;80.52;;
57092;Laerm;42968;52.094;4.328;2023-10-19T06:31:57;72.45;54.04;81.25;;
57092;Laerm;42968;52.094;4.328;2023-10-19T06:34:22;71.40;52.30;78.21;;
57092;Laerm;42968;52.094;4.328;2023-10-19T06:36:48;71.50;58.34;80.61;;
57092;Laerm;42968;52.094;4.328;2023-10-19T06:39:14;72.15;56.12;79.43;;
57092;Laerm;42968;52.094;4.328;2023-10-19T06:41:39;72.20;52.25;80.73;;
57092;Laerm;42968;52.094;4.328;2023-10-19T06:44:04;70.11;57.11;78.96;;
57092;Laerm;42968;52.094;4.328;2023-10-19T06:46:30;72.05;52.10;79.72;;
57092;Laerm;42968;52.094;4.328;2023-10-19T06:48:56;73.01;54.33;82.72;;
57092;Laerm;42968;52.094;4.328;2023-10-19T06:51:25;70.96;57.85;81.12;;
57092;Laerm;42968;52.094;4.328;2023-10-19T06:53:51;70.87;49.34;82.34;;
57092;Laerm;42968;52.094;4.328;2023-10-19T06:56:17;71.90;56.90;80.83;;
57092;Laerm;42968;52.094;4.328;2023-10-19T06:58:42;72.79;54.69;79.81;;
57092;Laerm;42968;52.094;4.328;2023-10-19T07:01:07;72.12;53.51;81.05;;
57092;Laerm;42968;52.094;4.328;2023-10-19T07:03:33;72.36;51.93;80.19;;
57092;Laerm;42968;52.094;4.328;2023-10-19T07:05:58;73.39;53.61;82.81;;
57092;Laerm;42968;52.094;4.328;2023-10-19T07:08:24;71.30;50.57;78.46;;
57092;Laerm;42968;52.094;4.328;2023-10-19T07:10:52;69.75;54.21;78.92;;
57092;Laerm;42968;52.094;4.328;2023-10-19T07:13:20;71.43;52.97;80.72;;
57092;Laerm;42968;52.094;4.328;2023-10-19T07:15:47;69.97;52.74;84.16;;
57092;Laerm;42968;52.094;4.328;2023-10-19T07:18:14;71.70;50.87;80.12;;
57092;Laerm;42968;52.094;4.328;2023-10-19T07:20:39;72.47;56.47;83.76;;
57092;Laerm;42968;52.094;4.328;2023-10-19T07:23:04;71.18;53.61;81.00;;
57092;Laerm;42968;52.094;4.328;2023-10-19T07:25:56;71.11;54.22;80.76;;
57092;Laerm;42968;52.094;4.328;2023-10-19T07:28:24;70.71;58.07;77.91;;
57092;Laerm;42968;52.094;4.328;2023-10-19T07:30:51;71.96;54.69;81.44;;
57092;Laerm;42968;52.094;4.328;2023-10-19T07:33:17;69.93;51.41;77.79;;
57092;Laerm;42968;52.094;4.328;2023-10-19T07:35:43;70.79;55.89;78.48;;
57092;Laerm;42968;52.094;4.328;2023-10-19T07:38:11;70.65;56.21;82.30;;
57092;Laerm;42968;52.094;4.328;2023-10-19T07:40:36;71.72;51.26;79.91;;
57092;Laerm;42968;52.094;4.328;2023-10-19T07:43:02;71.77;60.58;78.32;;
57092;Laerm;42968;52.094;4.328;2023-10-19T07:45:28;71.59;52.47;79.42;;
57092;Laerm;42968;52.094;4.328;2023-10-19T07:47:56;70.63;54.34;80.86;;
57092;Laerm;42968;52.094;4.328;2023-10-19T07:50:21;70.58;50.84;82.95;;
57092;Laerm;42968;52.094;4.328;2023-10-19T07:52:48;84.70;52.88;107.96;;
57092;Laerm;42968;52.094;4.328;2023-10-19T07:55:14;69.93;52.09;77.43;;
57092;Laerm;42968;52.094;4.328;2023-10-19T07:57:40;70.86;50.61;78.32;;
57092;Laerm;42968;52.094;4.328;2023-10-19T08:00:06;71.48;57.96;78.76;;
57092;Laerm;42968;52.094;4.328;2023-10-19T08:02:33;71.30;53.78;79.25;;
57092;Laerm;42968;52.094;4.328;2023-10-19T08:05:00;70.64;55.17;79.48;;
57092;Laerm;42968;52.094;4.328;2023-10-19T08:07:28;71.10;57.48;85.77;;
57092;Laerm;42968;52.094;4.328;2023-10-19T08:09:53;68.87;55.07;76.94;;
57092;Laerm;42968;52.094;4.328;2023-10-19T08:12:19;71.88;50.13;83.85;;
57092;Laerm;42968;52.094;4.328;2023-10-19T08:14:45;71.35;55.69;81.42;;
57092;Laerm;42968;52.094;4.328;2023-10-19T08:17:11;71.10;54.22;80.07;;
57092;Laerm;42968;52.094;4.328;2023-10-19T08:19:37;71.23;54.82;80.75;;
57092;Laerm;42968;52.094;4.328;2023-10-19T08:22:03;69.95;52.36;77.97;;
57092;Laerm;42968;52.094;4.328;2023-10-19T08:24:29;70.40;49.84;82.85;;
57092;Laerm;42968;52.094;4.328;2023-10-19T08:26:55;72.86;58.53;84.91;;
57092;Laerm;42968;52.094;4.328;2023-10-19T08:29:21;70.53;53.74;79.40;;
57092;Laerm;42968;52.094;4.328;2023-10-19T08:31:46;72.35;54.48;80.25;;
57092;Laerm;42968;52.094;4.328;2023-10-19T08:34:11;71.34;54.73;79.76;;
57092;Laerm;42968;52.094;4.328;2023-10-19T08:36:37;71.58;55.32;84.95;;
57092;Laerm;42968;52.094;4.328;2023-10-19T08:39:06;70.91;53.99;79.69;;
57092;Laerm;42968;52.094;4.328;2023-10-19T08:41:35;70.33;49.33;80.30;;
57092;Laerm;42968;52.094;4.328;2023-10-19T08:44:02;71.26;53.94;77.17;;
57092;Laerm;42968;52.094;4.328;2023-10-19T08:46:28;72.43;52.95;93.00;;
57092;Laerm;42968;52.094;4.328;2023-10-19T08:48:55;81.31;55.90;103.20;;
57092;Laerm;42968;52.094;4.328;2023-10-19T08:51:21;71.05;55.72;80.50;;
57092;Laerm;42968;52.094;4.328;2023-10-19T08:53:47;72.01;57.28;80.88;;
57092;Laerm;42968;52.094;4.328;2023-10-19T08:56:13;69.90;51.28;78.30;;
57092;Laerm;42968;52.094;4.328;2023-10-19T08:58:41;70.32;54.96;79.41;;
57092;Laerm;42968;52.094;4.328;2023-10-19T09:01:06;70.55;50.68;78.62;;
57092;Laerm;42968;52.094;4.328;2023-10-19T09:03:32;69.58;51.87;77.16;;
57092;Laerm;42968;52.094;4.328;2023-10-19T09:06:00;71.30;55.34;86.05;;
57092;Laerm;42968;52.094;4.328;2023-10-19T09:08:25;69.87;49.65;77.18;;
57092;Laerm;42968;52.094;4.328;2023-10-19T09:11:05;70.52;48.71;78.09;;
57092;Laerm;42968;52.094;4.328;2023-10-19T09:13:37;70.07;48.74;78.77;;
57092;Laerm;42968;52.094;4.328;2023-10-19T09:16:08;71.83;56.23;81.95;;
57092;Laerm;42968;52.094;4.328;2023-10-19T09:18:35;68.49;51.17;76.24;;
57092;Laerm;42968;52.094;4.328;2023-10-19T09:21:00;70.71;50.12;78.74;;
57092;Laerm;42968;52.094;4.328;2023-10-19T09:23:32;70.70;55.64;79.13;;
57092;Laerm;42968;52.094;4.328;2023-10-19T09:25:58;71.99;54.23;80.90;;
57092;Laerm;42968;52.094;4.328;2023-10-19T09:28:25;69.63;54.34;77.56;;
57092;Laerm;42968;52.094;4.328;2023-10-19T09:30:51;72.08;55.30;83.35;;
57092;Laerm;42968;52.094;4.328;2023-10-19T09:33:16;71.48;52.38;80.02;;
57092;Laerm;42968;52.094;4.328;2023-10-19T09:35:49;69.39;51.30;79.15;;
57092;Laerm;42968;52.094;4.328;2023-10-19T09:38:16;72.01;62.43;85.42;;
57092;Laerm;42968;52.094;4.328;2023-10-19T09:40:47;70.68;51.75;79.92;;
57092;Laerm;42968;52.094;4.328;2023-10-19T09:43:15;70.18;50.83;79.41;;
57092;Laerm;42968;52.094;4.328;2023-10-19T09:45:41;71.52;57.86;81.76;;
57092;Laerm;42968;52.094;4.328;2023-10-19T09:48:11;71.63;54.72;82.40;;
57092;Laerm;42968;52.094;4.328;2023-10-19T09:50:42;69.02;51.56;78.88;;
57092;Laerm;42968;52.094;4.328;2023-10-19T09:53:07;70.44;56.45;82.58;;
57092;Laerm;42968;52.094;4.328;2023-10-19T09:55:33;71.55;58.34;78.00;;
57092;Laerm;42968;52.094;4.328;2023-10-19T09:58:06;69.05;49.85;79.36;;
57092;Laerm;42968;52.094;4.328;2023-10-19T10:00:34;71.16;51.44;79.40;;
57092;Laerm;42968;52.094;4.328;2023-10-19T10:03:00;69.56;52.82;78.84;;
57092;Laerm;42968;52.094;4.328;2023-10-19T10:10:45;70.10;51.73;80.71;;
57092;Laerm;42968;52.094;4.328;2023-10-19T10:15:49;71.22;50.23;79.59;;
57092;Laerm;42968;52.094;4.328;2023-10-19T10:18:17;70.46;58.57;79.12;;
57092;Laerm;42968;52.094;4.328;2023-10-19T10:20:42;70.12;48.45;78.98;;
57092;Laerm;42968;52.094;4.328;2023-10-19T10:23:20;70.52;55.95;78.83;;
57092;Laerm;42968;52.094;4.328;2023-10-19T10:25:57;70.70;48.18;80.46;;
57092;Laerm;42968;52.094;4.328;2023-10-19T10:28:23;70.63;58.60;78.15;;
57092;Laerm;42968;52.094;4.328;2023-10-19T10:31:08;69.53;48.99;79.52;;
57092;Laerm;42968;52.094;4.328;2023-10-19T10:33:37;69.03;55.94;77.90;;
57092;Laerm;42968;52.094;4.328;2023-10-19T10:36:04;69.47;51.21;78.59;;
57092;Laerm;42968;52.094;4.328;2023-10-19T10:38:32;68.73;55.22;77.72;;
57092;Laerm;42968;52.094;4.328;2023-10-19T10:40:58;69.76;50.84;79.57;;
57092;Laerm;42968;52.094;4.328;2023-10-19T10:43:23;70.65;55.94;77.66;;
57092;Laerm;42968;52.094;4.328;2023-10-19T10:45:48;69.90;54.10;78.77;;
57092;Laerm;42968;52.094;4.328;2023-10-19T10:48:14;69.50;53.70;78.02;;
57092;Laerm;42968;52.094;4.328;2023-10-19T10:50:40;70.57;51.99;78.57;;
57092;Laerm;42968;52.094;4.328;2023-10-19T10:53:07;69.99;51.03;83.22;;
57092;Laerm;42968;52.094;4.328;2023-10-19T10:55:32;71.18;55.21;81.33;;
57092;Laerm;42968;52.094;4.328;2023-10-19T10:57:57;70.71;51.22;80.30;;
57092;Laerm;42968;52.094;4.328;2023-10-19T11:00:23;68.57;49.81;76.89;;
57092;Laerm;42968;52.094;4.328;2023-10-19T11:03:00;71.11;50.04;78.64;;
57092;Laerm;42968;52.094;4.328;2023-10-19T11:05:26;70.88;49.14;79.54;;
57092;Laerm;42968;52.094;4.328;2023-10-19T11:08:07;69.82;53.37;77.20;;
57092;Laerm;42968;52.094;4.328;2023-10-19T11:10:34;70.26;48.74;78.44;;
57092;Laerm;42968;52.094;4.328;2023-10-19T11:13:05;69.89;53.55;79.34;;
57092;Laerm;42968;52.094;4.328;2023-10-19T11:15:34;71.03;56.41;80.85;;
57092;Laerm;42968;52.094;4.328;2023-10-19T11:18:00;69.62;53.46;77.79;;
57092;Laerm;42968;52.094;4.328;2023-10-19T11:20:26;70.42;54.59;80.88;;
57092;Laerm;42968;52.094;4.328;2023-10-19T11:22:53;70.04;48.91;79.50;;
57092;Laerm;42968;52.094;4.328;2023-10-19T11:25:21;70.56;53.97;78.81;;
57092;Laerm;42968;52.094;4.328;2023-10-19T11:27:47;69.99;49.00;78.62;;
57092;Laerm;42968;52.094;4.328;2023-10-19T11:30:13;71.93;53.65;79.17;;
57092;Laerm;42968;52.094;4.328;2023-10-19T11:32:38;69.94;50.85;80.13;;
57092;Laerm;42968;52.094;4.328;2023-10-19T11:35:04;70.88;49.94;80.64;;
57092;Laerm;42968;52.094;4.328;2023-10-19T11:37:29;69.74;55.32;77.74;;
57092;Laerm;42968;52.094;4.328;2023-10-19T11:39:55;70.81;53.68;85.80;;
57092;Laerm;42968;52.094;4.328;2023-10-19T11:42:20;69.52;53.61;79.67;;
57092;Laerm;42968;52.094;4.328;2023-10-19T11:44:45;68.69;51.39;76.20;;
57092;Laerm;42968;52.094;4.328;2023-10-19T11:47:11;70.30;53.75;86.54;;
57092;Laerm;42968;52.094;4.328;2023-10-19T11:49:36;72.29;52.33;89.26;;
57092;Laerm;42968;52.094;4.328;2023-10-19T11:52:06;71.22;53.40;82.01;;
57092;Laerm;42968;52.094;4.328;2023-10-19T11:54:32;70.54;52.39;79.07;;
57092;Laerm;42968;52.094;4.328;2023-10-19T11:56:58;72.64;53.03;85.18;;
57092;Laerm;42968;52.094;4.328;2023-10-19T11:59:23;69.48;49.81;80.16;;
57092;Laerm;42968;52.094;4.328;2023-10-19T12:01:48;71.05;53.40;78.25;;
57092;Laerm;42968;52.094;4.328;2023-10-19T12:04:13;70.11;56.37;81.49;;
57092;Laerm;42968;52.094;4.328;2023-10-19T12:06:39;69.31;51.18;78.20;;
57092;Laerm;42968;52.094;4.328;2023-10-19T12:09:04;71.39;47.34;83.32;;
57092;Laerm;42968;52.094;4.328;2023-10-19T12:11:39;69.79;56.01;80.34;;
57092;Laerm;42968;52.094;4.328;2023-10-19T12:14:05;70.74;59.90;77.67;;
57092;Laerm;42968;52.094;4.328;2023-10-19T12:16:34;69.08;47.14;77.66;;
57092;Laerm;42968;52.094;4.328;2023-10-19T12:18:59;70.02;50.58;80.35;;
57092;Laerm;42968;52.094;4.328;2023-10-19T12:21:24;70.39;53.95;79.93;;
57092;Laerm;42968;52.094;4.328;2023-10-19T12:23:52;70.23;52.76;76.99;;
57092;Laerm;42968;52.094;4.328;2023-10-19T12:26:20;72.34;53.99;88.91;;
57092;Laerm;42968;52.094;4.328;2023-10-19T12:28:45;73.85;49.69;91.88;;
57092;Laerm;42968;52.094;4.328;2023-10-19T12:31:12;69.49;50.19;83.27;;
57092;Laerm;42968;52.094;4.328;2023-10-19T12:33:37;70.19;50.63;80.72;;
57092;Laerm;42968;52.094;4.328;2023-10-19T12:36:03;71.30;61.25;77.91;;
57092;Laerm;42968;52.094;4.328;2023-10-19T12:38:48;69.82;54.61;76.90;;
57092;Laerm;42968;52.094;4.328;2023-10-19T12:41:14;69.78;54.93;77.31;;
57092;Laerm;42968;52.094;4.328;2023-10-19T12:43:39;69.23;54.91;77.25;;
57092;Laerm;42968;52.094;4.328;2023-10-19T12:46:05;70.18;58.62;79.03;;
57092;Laerm;42968;52.094;4.328;2023-10-19T12:48:37;70.75;58.11;88.65;;
57092;Laerm;42968;52.094;4.328;2023-10-19T12:51:02;70.30;55.19;79.83;;
57092;Laerm;42968;52.094;4.328;2023-10-19T12:53:28;70.61;49.92;78.32;;
57092;Laerm;42968;52.094;4.328;2023-10-19T12:55:53;70.11;57.33;77.93;;
57092;Laerm;42968;52.094;4.328;2023-10-19T12:58:18;69.67;55.01;78.28;;
57092;Laerm;42968;52.094;4.328;2023-10-19T13:00:47;70.07;49.24;79.27;;
57092;Laerm;42968;52.094;4.328;2023-10-19T13:03:13;69.57;51.95;77.72;;
57092;Laerm;42968;52.094;4.328;2023-10-19T13:05:39;71.34;49.21;79.82;;
57092;Laerm;42968;52.094;4.328;2023-10-19T13:08:06;70.31;55.67;79.13;;
57092;Laerm;42968;52.094;4.328;2023-10-19T13:10:32;71.81;52.70;83.71;;
57092;Laerm;42968;52.094;4.328;2023-10-19T13:13:01;70.83;55.08;79.95;;
57092;Laerm;42968;52.094;4.328;2023-10-19T13:15:29;71.20;52.81;83.32;;
57092;Laerm;42968;52.094;4.328;2023-10-19T13:17:56;70.99;50.08;92.53;;
57092;Laerm;42968;52.094;4.328;2023-10-19T13:20:21;71.18;55.42;85.86;;
57092;Laerm;42968;52.094;4.328;2023-10-19T13:22:48;71.08;50.93;79.40;;
57092;Laerm;42968;52.094;4.328;2023-10-19T13:25:13;71.95;59.02;81.28;;
57092;Laerm;42968;52.094;4.328;2023-10-19T13:27:42;69.98;55.74;77.63;;
57092;Laerm;42968;52.094;4.328;2023-10-19T13:30:07;72.07;56.06;80.22;;
57092;Laerm;42968;52.094;4.328;2023-10-19T13:32:35;72.32;60.86;80.64;;
57092;Laerm;42968;52.094;4.328;2023-10-19T13:35:00;71.83;57.41;79.77;;
57092;Laerm;42968;52.094;4.328;2023-10-19T13:37:26;71.48;50.92;77.72;;
57092;Laerm;42968;52.094;4.328;2023-10-19T13:39:51;73.13;55.62;79.94;;
57092;Laerm;42968;52.094;4.328;2023-10-19T13:42:16;72.27;51.21;79.93;;
57092;Laerm;42968;52.094;4.328;2023-10-19T13:44:42;73.74;57.79;79.53;;
57092;Laerm;42968;52.094;4.328;2023-10-19T13:47:07;73.14;53.30;82.18;;
57092;Laerm;42968;52.094;4.328;2023-10-19T13:49:34;71.98;53.00;80.53;;
57092;Laerm;42968;52.094;4.328;2023-10-19T13:52:00;72.88;57.93;81.22;;
57092;Laerm;42968;52.094;4.328;2023-10-19T13:54:25;72.02;51.16;80.54;;
57092;Laerm;42968;52.094;4.328;2023-10-19T13:56:51;73.16;53.49;80.28;;